createdAt,value
2023-01-24T00:23:02.379Z,2.9
2023-01-24T00:51:19.673Z,2.85
2023-01-24T01:19:40.028Z,3.01
2023-01-24T01:47:58.454Z,2.99
2023-01-24T02:16:14.295Z,2.98
2023-01-24T02:44:29.300Z,3.04
2023-01-24T03:12:45.779Z,2.94
2023-01-24T03:41:05.571Z,2.83
2023-01-24T04:09:21.608Z,2.87
2023-01-24T04:37:34.016Z,2.56
2023-01-24T05:05:59.315Z,2.93
2023-01-24T05:34:16.097Z,2.99
2023-01-24T06:02:30.801Z,2.73
2023-01-24T06:30:46.143Z,2.69
2023-01-24T06:59:00.187Z,2.69
2023-01-24T07:27:23.263Z,2.79
2023-01-24T07:56:01.862Z,2.79
2023-01-24T08:24:00.240Z,2.98
2023-01-24T08:52:17.886Z,3.15
2023-01-24T09:20:35.314Z,3.32
2023-01-24T09:48:47.268Z,3.28
2023-01-24T10:17:08.131Z,3.66
2023-01-24T10:45:30.759Z,3.92
2023-01-24T11:13:46.257Z,3.69
2023-01-24T11:42:06.523Z,4.05
2023-01-24T12:10:27.439Z,4.28
2023-01-24T12:39:31.497Z,4.36
2023-01-24T13:08:30.880Z,4.49
2023-01-24T13:37:23.265Z,4.52
2023-01-24T14:06:22.337Z,4.68
2023-01-24T14:35:10.073Z,4.13
2023-01-24T15:04:13.160Z,4.02
2023-01-24T15:33:21.188Z,4.07
2023-01-24T16:02:19.557Z,3.97
2023-01-24T16:31:22.730Z,3.78
2023-01-24T17:00:19.379Z,3.85
2023-01-24T17:29:15.420Z,3.72
2023-01-24T17:58:01.484Z,3.57
2023-01-24T18:26:54.018Z,3.49
2023-01-24T18:55:48.083Z,3.48
2023-01-24T19:24:53.577Z,3.51
2023-01-24T19:53:47.886Z,3.33
2023-01-24T20:22:42.620Z,3.03
2023-01-24T20:51:39.695Z,2.95
2023-01-24T21:20:36.924Z,2.98
2023-01-24T21:49:38.002Z,3.01
2023-01-24T22:18:33.971Z,2.91
2023-01-24T22:47:32.529Z,3.1
2023-01-24T23:16:29.995Z,2.91
2023-01-24T23:45:26.325Z,2.82
